Time;durP1;ratioP1;P1;durP2;ratioP2;P2;SDS_P1;SDS_P2;PMS_P1;PMS_P2;Temp;Humidity;BMP_temperature;BMP_pressure;BME280_temperature;BME280_humidity;BME280_pressure;Samples;Min_cycle;Max_cycle;Signal;HPM_P1;HPM_P2
2021/10/22 00:01:53;;;;;;;2.63;1.48;;;20.60;48.20;;;24.59;32.52;100318.50;5094438;28;20044;-6
2021/10/22 00:04:19;;;;;;;2.97;1.50;;;20.60;48.20;;;24.57;32.29;100315.13;5094156;28;20052;-6
2021/10/22 00:06:45;;;;;;;2.95;1.50;;;20.60;48.20;;;24.57;32.24;100319.63;5094240;28;20134;-7
2021/10/22 00:09:11;;;;;;;2.15;1.48;;;20.60;48.10;;;24.63;32.37;100326.28;5094050;28;20424;-7
2021/10/22 00:11:37;;;;;;;2.45;1.30;;;20.60;48.10;;;24.61;32.41;100326.41;5093968;28;20048;-7
2021/10/22 00:14:03;;;;;;;2.90;1.60;;;20.60;48.10;;;24.62;32.39;100328.06;5093908;28;20052;-7
2021/10/22 00:16:28;;;;;;;2.85;1.77;;;20.60;48.00;;;24.59;32.35;100314.97;5093967;28;20048;-6
2021/10/22 00:18:54;;;;;;;2.40;1.33;;;20.60;48.10;;;24.58;32.17;100315.97;5092259;28;20512;-6
2021/10/22 00:21:21;;;;;;;2.50;1.25;;;20.60;48.10;;;24.58;32.35;100327.50;5093837;28;20404;-7
2021/10/22 00:23:46;;;;;;;2.22;1.35;;;20.60;48.10;;;24.59;32.32;100328.34;5094180;28;20040;-6
2021/10/22 00:26:12;;;;;;;2.05;1.40;;;20.60;48.00;;;24.61;32.20;100339.78;5093825;28;20055;-6
2021/10/22 00:28:39;;;;;;;2.05;1.27;;;20.60;48.00;;;24.61;32.24;100342.44;5093621;28;20052;-6
2021/10/22 00:31:05;;;;;;;2.30;1.25;;;20.60;48.00;;;24.61;32.08;100342.44;5093564;28;20052;-9
2021/10/22 00:33:33;;;;;;;2.38;1.40;;;20.60;48.00;;;24.62;32.30;100332.59;5093697;28;20135;-9
2021/10/22 00:36:02;;;;;;;2.55;1.45;;;20.60;48.00;;;24.59;32.21;100321.19;5093644;28;20511;-8
2021/10/22 00:38:29;;;;;;;2.55;1.40;;;20.60;48.00;;;24.62;32.05;100325.41;5093492;28;20052;-8
2021/10/22 00:40:55;;;;;;;2.70;1.50;;;20.60;48.00;;;24.62;32.15;100325.41;5093534;28;20044;-8
2021/10/22 00:43:21;;;;;;;2.42;1.65;;;20.60;47.90;;;24.61;32.13;100326.41;5092792;28;20078;-9
2021/10/22 00:45:53;;;;;;;1.85;1.30;;;20.60;47.90;;;24.60;32.22;100327.38;5093254;28;20059;-8
2021/10/22 00:48:19;;;;;;;2.58;1.30;;;20.60;47.90;;;24.64;32.15;100319.94;5093923;28;20078;-8
2021/10/22 00:50:51;;;;;;;2.78;1.45;;;20.60;48.50;;;24.62;32.16;100325.41;5093127;28;20407;-8
2021/10/22 00:53:18;;;;;;;;;;;20.60;47.90;;;24.78;31.91;100320.44;5092416;28;20174;-8
2021/10/22 00:55:44;;;;;;;1.65;1.17;;;20.60;48.10;;;24.70;31.96;100320.25;5093220;28;19915;-8
2021/10/22 00:58:11;;;;;;;2.88;1.80;;;20.60;47.90;;;24.67;32.16;100325.03;5056875;28;20091;-8
2021/10/22 01:00:37;;;;;;;2.58;1.48;;;20.60;47.90;;;24.65;32.12;100335.00;5075047;28;20047;-8
2021/10/22 01:03:05;;;;;;;2.20;1.23;;;20.60;47.90;;;24.62;32.15;100333.44;5093296;28;20052;-8
2021/10/22 01:05:32;;;;;;;2.90;1.45;;;20.60;47.80;;;24.62;32.05;100329.91;5093031;28;20113;-8
2021/10/22 01:07:57;;;;;;;2.35;1.20;;;20.60;47.80;;;24.59;32.00;100323.88;5092964;28;20412;-8
2021/10/22 01:10:23;;;;;;;2.85;1.23;;;20.60;47.90;;;24.62;31.93;100330.75;5093077;28;20052;-9
2021/10/22 01:12:49;;;;;;;1.98;1.05;;;20.60;47.80;;;24.62;31.93;100320.06;5093114;28;20105;-8
2021/10/22 01:15:15;;;;;;;2.88;1.27;;;20.60;47.80;;;24.64;32.05;100319.94;5090534;28;20055;-8
2021/10/22 01:17:45;;;;;;;3.28;1.80;;;20.60;47.80;;;24.59;31.93;100337.22;5091398;28;20059;-8
2021/10/22 01:20:20;;;;;;;2.85;1.48;;;20.60;47.80;;;24.62;32.20;100344.13;5093067;28;20051;-8
2021/10/22 01:22:49;;;;;;;1.88;1.17;;;20.60;47.90;;;24.62;32.10;100348.63;5093325;28;20131;-8
2021/10/22 01:25:19;;;;;;;2.42;1.40;;;20.60;47.80;;;24.62;32.03;100351.31;5092996;28;20051;-8
2021/10/22 01:27:46;;;;;;;2.08;1.38;;;20.60;47.80;;;24.60;31.97;100346.91;5073527;28;20040;-9
2021/10/22 01:30:15;;;;;;;2.25;1.20;;;20.60;47.80;;;24.61;31.88;100347.78;5092851;28;20048;-8
2021/10/22 01:32:42;;;;;;;3.00;1.38;;;20.60;47.70;;;24.62;32.02;100337.94;5092782;28;20075;-8
2021/10/22 01:35:09;;;;;;;2.38;1.27;;;20.60;47.70;;;24.61;31.82;100334.44;5093263;28;20101;-9
2021/10/22 01:37:36;;;;;;;2.45;1.13;;;20.60;47.70;;;24.63;31.90;100335.13;5092885;28;20104;-9
2021/10/22 01:40:05;;;;;;;2.22;1.15;;;20.60;47.60;;;24.64;31.99;100338.63;5092777;28;20153;-9
2021/10/22 01:42:32;;;;;;;2.38;1.27;;;20.60;47.70;;;24.62;32.05;100328.06;5092740;28;20055;-9
2021/10/22 01:44:57;;;;;;;2.72;1.30;;;20.60;47.70;;;24.62;31.92;100329.91;5092799;28;20093;-9
2021/10/22 01:47:23;;;;;;;3.15;1.38;;;20.60;47.70;;;24.62;31.85;100336.09;5092562;28;20036;-9
2021/10/22 01:49:50;;;;;;;2.13;1.38;;;20.60;47.80;;;24.60;31.88;100311.34;5092824;28;20040;-8
2021/10/22 01:52:16;;;;;;;3.85;1.48;;;20.60;47.70;;;24.63;31.84;100320.94;5092869;28;20044;-9
2021/10/22 01:54:42;;;;;;;3.28;1.30;;;20.60;47.60;;;24.62;32.00;100322.72;5093850;28;20051;-9
2021/10/22 01:57:10;;;;;;;3.20;1.45;;;20.60;47.60;;;24.65;31.90;100333.16;5096625;28;20052;-8
2021/10/22 01:59:37;;;;;;;1.60;1.05;;;20.60;47.60;;;24.66;31.93;100326.84;5096021;28;20533;-9
2021/10/22 02:02:03;;;;;;;1.40;1.30;;;20.60;47.60;;;24.63;31.92;100324.44;5096092;28;20044;-8
2021/10/22 02:04:29;;;;;;;1.60;1.08;;;20.60;47.60;;;24.63;31.67;100326.28;5096253;28;20445;-8
2021/10/22 02:06:55;;;;;;;2.38;1.23;;;20.60;47.60;;;24.62;31.72;100319.22;5095909;28;20408;-8
2021/10/22 02:09:21;;;;;;;2.08;1.55;;;20.60;47.60;;;24.63;31.69;100321.75;5095991;28;20055;-8
2021/10/22 02:11:47;;;;;;;3.25;1.65;;;20.60;47.60;;;24.62;31.78;100324.56;5096198;28;20042;-8
2021/10/22 02:14:16;;;;;;;2.95;1.33;;;20.60;47.60;;;24.60;31.68;100314.00;5095789;28;20035;-8
2021/10/22 02:16:44;;;;;;;2.63;1.40;;;20.60;47.60;;;24.60;31.71;100333.56;5095748;28;20050;-8
2021/10/22 02:19:10;;;;;;;2.42;1.23;;;20.60;47.60;;;24.60;31.91;100330.03;5095515;28;20079;-8
2021/10/22 02:21:37;;;;;;;2.40;1.40;;;20.60;47.50;;;24.60;31.74;100325.53;5095880;28;20048;-9
2021/10/22 02:24:03;;;;;;;2.45;1.48;;;20.60;47.50;;;24.60;31.79;100322.88;5094359;28;20078;-8
2021/10/22 02:26:29;;;;;;;2.72;1.40;;;20.60;47.60;;;24.60;31.69;100324.69;5095681;28;20143;-7
2021/10/22 02:28:54;;;;;;;1.90;1.50;;;20.60;47.50;;;24.62;31.73;100328.06;5095493;28;20396;-7
2021/10/22 02:31:22;;;;;;;1.60;1.10;;;20.60;47.60;;;24.59;31.83;100312.31;5095617;28;20559;-7
2021/10/22 02:33:47;;;;;;;2.80;1.30;;;20.60;47.70;;;24.59;32.08;100307.81;5076672;28;20044;-6
2021/10/22 02:36:13;;;;;;;3.20;1.40;;;20.60;47.60;;;24.59;31.73;100307.81;5095789;28;20400;-6
2021/10/22 02:38:40;;;;;;;1.40;1.10;;;20.60;47.60;;;24.62;31.62;100312.03;5095452;28;20048;-6
2021/10/22 02:41:08;;;;;;;2.22;1.40;;;20.60;47.50;;;24.64;31.77;100309.25;5095409;28;20067;-7
2021/10/22 02:43:35;;;;;;;2.92;1.30;;;20.70;47.90;;;24.62;31.62;100306.69;5095293;28;20040;-6
2021/10/22 02:46:03;;;;;;;1.35;1.10;;;20.70;47.30;;;24.62;31.65;100300.50;5095279;28;20117;-6
2021/10/22 02:48:30;;;;;;;2.47;1.17;;;20.70;47.40;;;24.62;31.54;100296.00;5095616;28;20438;-6
2021/10/22 02:50:56;;;;;;;1.60;1.25;;;20.70;47.20;;;24.60;31.56;100295.28;5095264;28;20127;-6
2021/10/22 02:53:22;;;;;;;3.22;1.73;;;20.80;47.00;;;24.61;31.62;100299.69;5095317;28;20205;-6
2021/10/22 02:55:48;;;;;;;2.03;1.20;;;20.80;47.00;;;24.62;31.77;100293.34;5094944;28;20063;-6
2021/10/22 02:58:14;;;;;;;2.20;1.10;;;20.90;46.80;;;24.62;31.69;100287.16;5095283;28;20060;-6
2021/10/22 03:00:40;;;;;;;4.38;1.38;;;20.90;46.80;;;24.66;31.63;100299.25;5095060;28;20392;-6
2021/10/22 03:03:06;;;;;;;2.47;1.23;;;20.90;46.90;;;24.63;31.53;100289.69;5094852;28;20052;-7
2021/10/22 03:05:33;;;;;;;2.42;1.10;;;20.90;46.80;;;24.66;31.50;100288.56;5094646;28;20400;-6
2021/10/22 03:07:59;;;;;;;2.38;0.98;;;20.90;46.80;;;24.69;31.79;100299.88;5094980;28;20113;-6
2021/10/22 03:10:26;;;;;;;2.92;1.00;;;20.90;46.80;;;24.70;31.62;100282.81;5094863;28;20048;-7
2021/10/22 03:12:52;;;;;;;3.25;1.15;;;20.90;46.70;;;24.72;31.50;100283.53;5095262;28;20053;-8
2021/10/22 03:15:19;;;;;;;1.33;1.20;;;20.90;46.80;;;24.70;31.61;100274.81;5094984;28;20413;-7
2021/10/22 03:17:46;;;;;;;1.65;1.10;;;20.90;46.60;;;24.71;31.45;100273.84;5094865;28;20093;-6
2021/10/22 03:20:12;;;;;;;1.92;1.13;;;20.90;46.60;;;24.72;31.39;100272.84;5095384;28;20132;-7
2021/10/22 03:22:39;;;;;;;1.80;1.23;;;20.90;46.70;;;24.74;31.49;100267.34;5094824;28;20135;-6
2021/10/22 03:25:06;;;;;;;1.90;1.33;;;20.90;46.70;;;24.76;31.39;100270.75;5095055;28;20101;-7
2021/10/22 03:27:32;;;;;;;1.52;1.10;;;20.90;46.80;;;24.76;31.48;100252.88;5094639;28;20377;-7
2021/10/22 03:29:58;;;;;;;1.52;1.20;;;20.90;46.80;;;24.78;31.40;100256.25;5094476;28;20048;-6
2021/10/22 03:32:24;;;;;;;2.22;1.40;;;20.90;46.70;;;24.79;31.48;100257.09;5094673;28;20052;-6
2021/10/22 03:34:50;;;;;;;3.28;1.20;;;20.80;46.80;;;24.77;31.30;100251.91;5094631;28;20400;-6
2021/10/22 03:37:16;;;;;;;3.17;1.42;;;20.70;46.90;;;24.80;31.47;100252.63;5094949;28;20051;-6
2021/10/22 03:39:42;;;;;;;3.13;1.40;;;20.70;46.90;;;24.78;31.45;100256.25;5094522;28;20048;-7
2021/10/22 03:42:08;;;;;;;1.67;1.13;;;20.70;47.10;;;24.79;31.27;100257.09;5094504;28;20048;-6
2021/10/22 03:44:34;;;;;;;1.58;0.93;;;20.70;47.10;;;24.77;31.46;100245.69;5094795;28;20543;-6
2021/10/22 03:47:00;;;;;;;2.20;1.10;;;20.70;47.20;;;24.79;31.29;100246.41;5094310;28;20044;-6
2021/10/22 03:49:26;;;;;;;2.25;1.13;;;20.70;47.10;;;24.78;31.41;100245.56;5094354;28;20583;-6
2021/10/22 03:51:53;;;;;;;2.72;1.10;;;20.60;47.00;;;24.78;31.46;100242.06;5094323;28;20080;-6
2021/10/22 03:54:19;;;;;;;2.95;1.15;;;20.60;47.10;;;24.73;31.28;100237.09;5076396;28;20044;-6
2021/10/22 03:56:44;;;;;;;1.73;1.10;;;20.60;46.80;;;24.77;31.40;100238.56;5094148;28;20385;-7
2021/10/22 03:59:10;;;;;;;1.67;1.10;;;20.70;47.10;;;24.76;31.12;100231.50;5093910;28;20048;-7
2021/10/22 04:01:36;;;;;;;1.90;1.27;;;20.70;46.90;;;24.77;31.19;100246.56;5094139;28;20043;-6
2021/10/22 04:04:02;;;;;;;1.67;1.08;;;20.80;46.80;;;24.76;31.41;100222.63;5094621;28;20040;-6
2021/10/22 04:06:28;;;;;;;1.60;1.10;;;20.70;46.70;;;24.78;31.28;100224.19;5094328;28;20476;-6
2021/10/22 04:08:54;;;;;;;1.65;0.90;;;20.70;46.70;;;24.76;31.21;100222.63;5093927;28;20427;-8
2021/10/22 04:11:20;;;;;;;1.15;0.90;;;20.80;46.70;;;24.74;31.19;100214.75;5094052;28;20044;-6
2021/10/22 04:13:45;;;;;;;1.55;1.10;;;20.80;46.50;;;24.71;31.31;100203.50;5094195;28;20056;-6
2021/10/22 04:16:11;;;;;;;1.27;1.05;;;20.70;46.70;;;24.74;31.26;100216.56;5093838;28;20052;-7
2021/10/22 04:18:38;;;;;;;2.40;1.20;;;20.70;46.90;;;24.74;31.22;100211.22;5075100;28;20048;-6
2021/10/22 04:21:05;;;;;;;2.90;1.30;;;20.70;46.90;;;24.70;31.20;100205.28;5093811;28;20047;-6
2021/10/22 04:23:32;;;;;;;1.27;0.90;;;20.70;46.80;;;24.70;31.11;100213.31;5093792;28;20056;-6
2021/10/22 04:25:59;;;;;;;2.47;1.10;;;20.70;46.90;;;24.72;31.19;100224.72;5093840;28;20040;-7
2021/10/22 04:28:25;;;;;;;2.17;1.20;;;20.70;46.90;;;24.72;31.06;100211.34;5093708;28;20044;-6
2021/10/22 04:30:51;;;;;;;1.65;1.27;;;20.70;46.90;;;24.74;31.19;100205.88;5093779;28;20063;-6
2021/10/22 04:33:17;;;;;;;1.15;0.80;;;20.70;46.90;;;24.72;31.13;100206.00;5093315;28;20052;-7
2021/10/22 04:35:42;;;;;;;1.50;0.80;;;20.70;46.90;;;24.69;31.16;100198.28;5093469;28;20511;-7
2021/10/22 04:40:47;;;;;;;1.73;1.05;;;20.60;46.80;;;24.67;31.31;100188.69;5093775;28;20043;-6
2021/10/22 04:43:16;;;;;;;2.03;1.10;;;20.50;47.00;;;24.68;31.34;100203.75;5093338;28;20082;-6
2021/10/22 04:45:44;;;;;;;1.50;0.98;;;20.50;47.20;;;24.65;31.30;100179.97;5093335;28;20048;-6
2021/10/22 04:48:12;;;;;;;1.02;0.93;;;20.50;47.20;;;24.64;31.33;100188.94;5074211;28;20060;-6
2021/10/22 04:50:44;;;;;;;1.17;0.98;;;20.40;47.20;;;24.64;31.24;100181.81;5073386;28;20053;-7
2021/10/22 04:53:10;;;;;;;2.05;1.10;;;20.50;47.20;;;24.63;31.28;100177.44;5093831;28;20048;-6
2021/10/22 04:55:39;;;;;;;1.63;1.08;;;20.60;47.00;;;24.64;31.39;100173.78;5093203;28;20067;-7
2021/10/22 04:58:07;;;;;;;2.53;1.15;;;20.60;46.80;;;24.62;31.30;100169.53;5093200;28;20056;-6
2021/10/22 05:00:33;;;;;;;1.83;1.17;;;20.60;46.80;;;24.63;31.13;100165.91;5093275;28;20051;-8
2021/10/22 05:02:58;;;;;;;1.83;1.02;;;20.60;46.90;;;24.63;31.15;100163.22;5093121;28;20048;-6
2021/10/22 05:05:24;;;;;;;2.72;1.40;;;20.60;46.80;;;24.60;31.13;100170.50;5093167;28;20376;-6
2021/10/22 05:07:50;;;;;;;2.30;1.02;;;20.60;46.80;;;24.60;31.39;100167.84;5093149;28;20381;-7
2021/10/22 05:10:16;;;;;;;1.15;0.73;;;20.60;47.00;;;24.57;31.39;100160.13;5093100;28;20377;-6
2021/10/22 05:12:42;;;;;;;2.58;1.08;;;20.60;47.00;;;24.61;31.34;100158.00;5074931;28;20181;-6
2021/10/22 05:15:09;;;;;;;2.95;1.23;;;20.70;46.90;;;24.57;31.36;100157.44;5093005;28;20044;-6
2021/10/22 05:17:36;;;;;;;2.47;1.27;;;20.70;46.90;;;24.56;31.24;100141.53;5091938;28;20082;-6
2021/10/22 05:20:05;;;;;;;4.25;1.35;;;20.70;46.90;;;24.56;31.29;100130.84;5092904;28;20052;-6
2021/10/22 05:22:31;;;;;;;5.38;1.52;;;20.60;47.00;;;24.57;31.45;100135.19;5092898;28;20176;-7
2021/10/22 05:24:57;;;;;;;2.88;1.10;;;20.60;47.10;;;24.58;31.33;100129.72;5092930;28;20044;-6
2021/10/22 05:27:22;;;;;;;8.43;1.40;;;20.60;47.10;;;24.54;31.33;100111.38;5092945;28;20511;-8
2021/10/22 05:29:48;;;;;;;4.30;1.50;;;20.60;47.40;;;24.57;31.50;100124.50;5092552;28;20048;-9
2021/10/22 05:32:14;;;;;;;3.92;1.20;;;20.60;47.30;;;24.57;31.24;100097.78;5092946;28;20051;-9
2021/10/22 05:34:40;;;;;;;4.93;1.20;;;20.60;47.20;;;24.53;31.49;100105.19;5092795;28;20090;-8
2021/10/22 05:37:05;;;;;;;2.95;1.00;;;20.50;47.20;;;24.52;31.39;100110.66;5092741;28;20127;-8
2021/10/22 05:39:31;;;;;;;1.80;1.02;;;20.50;47.30;;;24.55;31.52;100107.75;5092375;28;20412;-8
2021/10/22 05:41:57;;;;;;;3.67;1.42;;;20.50;47.30;;;24.51;31.48;100107.16;5092784;28;20492;-9
2021/10/22 05:44:23;;;;;;;4.60;1.60;;;20.50;47.30;;;24.53;31.41;100093.66;5093077;28;20052;-9
2021/10/22 05:46:53;;;;;;;2.05;1.08;;;20.60;47.10;;;24.52;31.53;100106.16;5092669;28;20044;-9
2021/10/22 05:49:22;;;;;;;1.70;1.00;;;20.60;47.00;;;24.52;31.33;100114.19;5092833;28;20893;-8
2021/10/22 05:51:50;;;;;;;5.13;1.20;;;20.60;47.00;;;24.50;31.30;100091.25;5091239;28;20072;-8
2021/10/22 05:54:16;;;;;;;4.22;1.52;;;20.60;47.00;;;24.51;31.38;100109.00;5092424;28;20146;-8
2021/10/22 05:56:42;;;;;;;3.55;1.33;;;20.70;46.90;;;24.51;31.53;100104.50;5092478;28;20044;-9
2021/10/22 05:59:08;;;;;;;3.90;1.17;;;20.70;46.90;;;24.49;31.61;100095.78;5092304;28;20048;-8
2021/10/22 06:01:34;;;;;;;3.92;1.08;;;20.70;46.90;;;24.50;31.57;100094.78;5092361;28;20506;-9
2021/10/22 06:04:00;;;;;;;2.72;1.20;;;20.70;46.90;;;24.48;31.53;100101.25;5092723;28;20044;-8
2021/10/22 06:06:26;;;;;;;4.78;1.10;;;20.70;46.90;;;24.50;31.60;100101.94;5092347;28;20050;-8
2021/10/22 06:08:52;;;;;;;2.63;1.27;;;20.70;46.90;;;24.47;31.56;100097.72;5092262;28;20048;-9
2021/10/22 06:11:19;;;;;;;4.30;1.00;;;20.70;46.90;;;24.47;31.57;100080.84;5074225;28;20094;-8
2021/10/22 06:13:45;;;;;;;2.88;0.93;;;20.70;46.90;;;24.48;31.48;100095.91;5092332;28;20074;-8
2021/10/22 06:16:13;;;;;;;2.90;1.17;;;20.70;46.90;;;24.48;31.33;100099.41;5092333;28;20496;-9
2021/10/22 06:18:51;;;;;;;3.17;1.45;;;20.70;46.90;;;24.46;31.67;100098.72;5092076;28;20067;-8
2021/10/22 06:24:02;;;;;;;4.50;1.40;;;20.70;46.90;;;24.46;31.36;100068.44;5092552;28;20381;-8
2021/10/22 06:26:32;;;;;;;2.53;1.10;;;20.70;46.80;;;24.46;31.43;100079.13;5092198;28;20381;-10
2021/10/22 06:28:59;;;;;;;2.47;1.10;;;20.70;46.90;;;24.48;31.36;100077.19;5091878;28;20071;-9
2021/10/22 06:31:25;;;;;;;2.55;1.13;;;20.60;46.80;;;24.47;31.53;100073.66;5092112;28;20527;-9
2021/10/22 06:33:51;;;;;;;1.38;0.90;;;20.60;46.80;;;24.48;31.32;100080.72;5092076;28;20075;-9
2021/10/22 06:36:17;;;;;;;3.30;0.85;;;20.60;46.90;;;24.45;31.50;100072.13;5091921;28;20055;-9
2021/10/22 06:38:43;;;;;;;3.22;1.40;;;20.60;46.80;;;24.47;31.56;100084.34;5091624;28;20052;-8
2021/10/22 06:41:09;;;;;;;2.83;1.20;;;20.60;46.80;;;24.46;31.47;100072.00;5093639;28;20048;-9
2021/10/22 06:43:40;;;;;;;3.75;1.13;;;20.70;46.90;;;24.44;31.55;100071.28;5095316;28;20051;-9
2021/10/22 06:46:08;;;;;;;2.95;0.80;;;20.70;46.90;;;24.46;31.30;100072.00;5095405;28;20051;-9
2021/10/22 06:48:39;;;;;;;2.65;1.00;;;20.70;46.70;;;24.48;31.51;100075.38;5095229;28;20547;-8
2021/10/22 06:51:08;;;;;;;3.92;1.42;;;20.70;46.90;;;24.49;31.63;100077.06;5095277;28;20054;-8
2021/10/22 06:53:36;;;;;;;1.65;0.90;;;20.60;46.80;;;24.44;31.55;100086.47;5095246;28;20040;-8
2021/10/22 06:56:05;;;;;;;2.38;0.93;;;20.60;47.00;;;24.46;31.57;100076.47;5095310;28;20044;-8
2021/10/22 06:58:31;;;;;;;3.63;1.13;;;20.40;47.20;;;24.44;31.39;100076.63;5094944;28;20442;-9
2021/10/22 07:01:01;;;;;;;4.13;1.25;;;20.40;47.80;;;24.45;31.62;100074.78;5077079;28;20062;-9
2021/10/22 07:03:37;;;;;;;2.65;1.30;;;20.50;47.30;;;24.47;31.51;100073.66;5095161;28;20059;-8
2021/10/22 07:08:52;;;;;;;2.63;1.20;;;20.50;47.20;;;24.50;31.34;100069.88;5094948;28;20466;-8
2021/10/22 07:11:19;;;;;;;1.92;1.17;;;20.60;46.80;;;24.51;31.39;100080.44;5095070;28;20496;-8
2021/10/22 07:13:53;;;;;;;2.58;0.90;;;20.70;47.10;;;24.55;31.61;100089.88;5094962;28;20040;-8
2021/10/22 07:16:22;;;;;;;4.45;1.00;;;20.80;46.50;;;24.55;31.48;100070.34;5094877;28;20047;-9
2021/10/22 07:18:51;;;;;;;3.35;1.35;;;20.80;46.40;;;24.58;31.36;100078.09;5095182;28;20043;-9
2021/10/22 07:21:18;;;;;;;3.10;1.23;;;20.80;46.40;;;24.58;31.43;100070.91;5094790;28;20044;-8
2021/10/22 07:23:47;;;;;;;2.67;1.42;;;20.80;46.30;;;24.64;31.49;100068.66;5095055;28;20055;-9
2021/10/22 07:26:15;;;;;;;4.03;1.30;;;20.90;46.30;;;24.67;31.14;100052.34;5094806;28;20070;-8
2021/10/22 07:28:41;;;;;;;2.58;1.17;;;21.00;46.10;;;24.73;31.21;100062.50;5094707;28;20093;-8
2021/10/22 07:31:12;;;;;;;1.98;1.02;;;21.00;46.00;;;24.73;31.14;100054.47;5094651;28;20044;-8
2021/10/22 07:33:39;;;;;;;2.33;1.05;;;21.00;46.60;;;24.78;31.15;100058.41;5095003;28;20044;-8
2021/10/22 07:36:11;;;;;;;5.75;1.40;;;21.00;45.90;;;24.81;31.09;100053.78;5094574;28;20048;-9
2021/10/22 07:38:41;;;;;;;1.80;1.10;;;21.00;46.00;;;24.80;31.17;100039.56;5076422;28;20074;-8
2021/10/22 07:41:07;;;;;;;3.42;1.20;;;21.10;45.90;;;24.82;31.17;100050.13;5094492;28;20048;-8
2021/10/22 07:43:35;;;;;;;3.35;1.10;;;21.00;45.90;;;24.82;31.18;100026.91;5076332;28;20066;-9
2021/10/22 07:46:03;;;;;;;2.45;1.27;;;21.10;46.50;;;24.84;31.05;100034.78;5094295;28;20040;-9
2021/10/22 07:48:29;;;;;;;3.55;1.42;;;21.10;45.80;;;24.86;31.04;100031.00;5094401;28;20488;-9
2021/10/22 07:50:55;;;;;;;1.42;0.95;;;21.10;45.80;;;24.87;31.15;100032.66;5094297;28;20048;-8
2021/10/22 07:53:21;;;;;;;4.25;1.33;;;21.10;45.80;;;24.88;30.95;100039.72;5093188;28;20055;-8
2021/10/22 07:55:46;;;;;;;3.42;1.10;;;21.20;45.80;;;24.92;30.95;100043.78;5094418;28;20048;-8
2021/10/22 07:58:12;;;;;;;3.05;1.25;;;21.10;45.80;;;24.92;30.88;100037.59;5093903;28;20048;-8
2021/10/22 08:00:38;;;;;;;2.03;1.05;;;21.10;45.70;;;24.94;30.99;100052.53;5076178;28;20052;-11
2021/10/22 08:03:04;;;;;;;3.95;1.17;;;21.10;45.80;;;24.95;30.98;100048.00;5094292;28;20077;-8
2021/10/22 08:05:30;;;;;;;5.68;1.63;;;21.10;45.80;;;24.93;30.84;100053.50;5094206;28;20388;-8
2021/10/22 08:07:55;;;;;;;4.10;1.45;;;21.10;45.90;;;24.96;30.94;100077.28;5093956;28;20048;-8
2021/10/22 08:10:23;;;;;;;3.38;1.17;;;21.10;45.90;;;24.95;30.77;100072.09;5094319;28;20059;-8
2021/10/22 08:12:50;;;;;;;3.70;1.17;;;21.10;45.80;;;24.94;30.87;100049.00;5094018;28;20044;-8
2021/10/22 08:15:16;;;;;;;2.53;1.20;;;21.10;45.90;;;24.95;30.83;100059.53;5093992;28;20056;-8
2021/10/22 08:17:42;;;;;;;3.05;1.15;;;21.10;45.70;;;24.91;30.70;100049.28;5093850;28;20048;-9
2021/10/22 08:20:10;;;;;;;4.03;1.20;;;21.10;45.70;;;24.92;30.79;100045.63;5093907;28;20098;-9
2021/10/22 08:22:37;;;;;;;2.90;1.40;;;21.20;45.70;;;24.91;30.88;100060.00;5094124;28;20074;-8
2021/10/22 08:25:14;;;;;;;2.97;1.10;;;21.10;45.60;;;24.90;30.79;100063.63;5093783;28;20109;-9
2021/10/22 08:27:46;;;;;;;2.25;1.08;;;21.10;45.60;;;24.90;30.81;100055.63;5093659;28;20131;-8
2021/10/22 08:30:26;;;;;;;1.98;1.17;;;21.10;45.70;;;24.89;30.93;100043.22;5093758;28;20048;-9
2021/10/22 08:32:56;;;;;;;2.83;1.38;;;21.10;45.70;;;24.89;30.77;100051.25;5093114;28;20461;-10
2021/10/22 08:35:28;;;;;;;2.53;0.88;;;21.00;46.00;;;24.93;30.68;100055.34;5096641;28;20060;-8
2021/10/22 08:37:55;;;;;;;2.70;1.40;;;20.90;46.10;;;24.90;30.82;100059.13;5092517;28;20097;-7
2021/10/22 08:40:22;;;;;;;2.38;1.10;;;20.90;46.30;;;24.89;30.97;100062.81;5093942;28;20052;-7
2021/10/22 08:42:49;;;;;;;2.40;1.27;;;20.90;46.30;;;24.89;30.87;100053.91;5094080;28;20051;-7
2021/10/22 08:45:16;;;;;;;1.73;0.88;;;20.90;46.80;;;24.89;30.99;100046.75;5093110;28;20044;-7
2021/10/22 08:47:42;;;;;;;3.63;1.10;;;20.90;46.30;;;24.89;30.89;100045.88;5092400;28;20047;-11
2021/10/22 08:50:12;;;;;;;3.22;1.35;;;20.90;46.40;;;24.87;30.94;100058.56;5093703;28;20051;-11
2021/10/22 08:52:40;;;;;;;4.32;1.30;;;20.90;46.50;;;24.81;31.09;100041.25;5093747;28;20068;-11
2021/10/22 08:55:08;;;;;;;1.70;1.10;;;20.90;46.60;;;24.76;30.98;100033.66;5093369;28;20040;-12
2021/10/22 08:57:37;;;;;;;3.60;1.25;;;20.80;46.60;;;24.75;31.18;100018.59;5093170;28;20072;-12
2021/10/22 09:00:05;;;;;;;3.70;1.10;;;20.80;46.80;;;24.71;31.25;100027.88;5093202;28;20112;-11
2021/10/22 09:02:38;;;;;;;2.45;1.25;;;20.80;46.90;;;24.73;31.20;100052.66;5090416;28;20118;-9
2021/10/22 09:05:23;;;;;;;1.83;1.00;;;20.70;46.90;;;24.69;31.39;100045.91;5089829;28;20099;-10
2021/10/22 09:07:53;;;;;;;5.72;1.50;;;20.70;46.90;;;24.69;31.52;100037.00;5092969;28;20086;-10
2021/10/22 09:10:26;;;;;;;4.43;1.20;;;20.70;47.20;;;24.66;31.48;100034.63;5093001;28;20040;-10
2021/10/22 09:12:57;;;;;;;3.88;1.30;;;20.70;47.10;;;24.63;31.68;100054.47;5093472;28;20043;-10
2021/10/22 09:15:32;;;;;;;1.58;1.05;;;20.70;47.20;;;24.62;31.57;100062.63;5093296;28;20048;-10
2021/10/22 09:18:04;;;;;;;2.70;1.35;;;20.70;47.30;;;24.61;31.50;100061.78;5092895;28;20063;-10
2021/10/22 09:20:30;;;;;;;2.90;1.20;;;20.70;47.00;;;24.63;31.41;100072.34;5093214;28;20056;-10
2021/10/22 09:23:00;;;;;;;4.03;1.30;;;20.70;46.90;;;24.62;31.58;100081.34;5092760;28;20044;-10
2021/10/22 09:25:30;;;;;;;4.35;1.50;;;20.70;47.00;;;24.58;31.35;100086.94;5092886;28;20040;-11
2021/10/22 09:28:03;;;;;;;3.58;1.58;;;20.60;47.00;;;24.59;31.51;100090.47;5093173;28;20071;-10
2021/10/22 09:30:43;;;;;;;5.15;1.40;;;20.70;46.90;;;24.59;31.52;100098.47;5092588;28;20101;-10
2021/10/22 09:33:11;;;;;;;3.08;1.02;;;20.70;46.90;;;24.63;31.50;100096.41;5092838;28;20048;-10
2021/10/22 09:35:54;;;;;;;3.28;1.50;;;20.70;46.80;;;24.65;31.60;100092.59;5092652;28;20078;-10
2021/10/22 09:38:24;;;;;;;4.90;1.38;;;20.80;46.70;;;24.66;31.40;100075.56;5092642;28;20048;-10
2021/10/22 09:41:06;;;;;;;3.03;1.25;;;20.80;46.60;;;24.66;31.40;100080.94;5092620;28;20044;-10
2021/10/22 09:43:39;;;;;;;2.45;1.08;;;20.70;46.70;;;24.66;31.41;100085.41;5092895;28;20059;-10
2021/10/22 09:46:21;;;;;;;3.00;1.58;;;20.70;46.60;;;24.61;31.36;100061.78;5091979;28;20503;-9
2021/10/22 09:48:56;;;;;;;3.35;1.20;;;20.70;46.60;;;24.59;31.24;100055.72;5092550;28;20205;-10
2021/10/22 09:51:26;;;;;;;2.95;1.40;;;20.70;46.60;;;24.62;31.33;100059.94;5092898;28;20512;-11
2021/10/22 09:53:55;;;;;;;3.15;1.30;;;20.70;46.60;;;24.63;31.19;100051.78;5092885;28;20113;-10
2021/10/22 09:56:26;;;;;;;3.17;1.52;;;20.70;46.50;;;24.64;31.35;100048.16;5092493;28;20040;-10
2021/10/22 09:58:58;;;;;;;;;;;20.80;46.50;;;24.83;31.07;100075.88;5092766;28;20055;-10
2021/10/22 10:01:54;;;;;;;3.83;1.50;;;20.80;46.50;;;24.78;31.15;100077.13;5092554;28;19928;-10
2021/10/22 10:04:21;;;;;;;3.28;1.48;;;20.90;46.30;;;24.78;31.15;100078.97;5073241;28;20055;-10
2021/10/22 10:06:47;;;;;;;3.30;1.35;;;20.80;46.20;;;24.78;31.07;100095.00;5092274;28;20051;-10
2021/10/22 10:09:13;;;;;;;2.45;1.27;;;20.90;46.30;;;24.77;30.99;100104.00;5090272;28;20044;-10
2021/10/22 10:11:43;;;;;;;3.55;1.60;;;20.80;46.30;;;24.73;30.97;100098.09;5092238;28;20113;-10
2021/10/22 10:14:13;;;;;;;4.72;1.30;;;20.90;46.20;;;24.75;30.92;100111.31;5092108;28;20056;-10
2021/10/22 10:16:40;;;;;;;4.38;1.27;;;20.80;46.20;;;24.74;31.01;100105.13;5094814;28;20040;-10
2021/10/22 10:19:26;;;;;;;3.72;1.67;;;20.80;46.10;;;24.72;30.95;100103.56;5095569;28;20059;-10
2021/10/22 10:22:00;;;;;;;2.88;1.55;;;20.80;46.10;;;24.73;30.92;100110.63;5096038;28;20052;-10
2021/10/22 10:24:40;;;;;;;4.40;1.65;;;20.80;46.20;;;24.74;31.18;100123.84;5095792;28;20052;-10
2021/10/22 10:27:14;;;;;;;4.00;1.50;;;20.80;46.20;;;24.77;31.07;100118.25;5095994;28;20122;-9
2021/10/22 10:29:44;;;;;;;4.28;1.35;;;20.80;46.20;;;24.76;30.81;100121.03;5095700;28;20403;-10